createdAt,value
2019-05-26T00:01:43.707Z,12.20
2019-05-26T00:06:45.054Z,12.10
2019-05-26T00:11:46.670Z,12.00
2019-05-26T00:16:49.260Z,12.00
2019-05-26T00:21:50.586Z,11.90
2019-05-26T00:26:52.002Z,11.80
2019-05-26T00:31:53.332Z,11.70
2019-05-26T00:36:54.762Z,11.60
2019-05-26T00:41:56.508Z,11.50
2019-05-26T00:46:58.373Z,11.50
2019-05-26T00:52:01.376Z,11.40
2019-05-26T00:57:04.676Z,11.30
2019-05-26T01:02:06.103Z,11.30
2019-05-26T01:07:07.914Z,11.20
2019-05-26T01:12:09.166Z,11.20
2019-05-26T01:17:10.583Z,11.10
2019-05-26T01:22:11.831Z,11.10
2019-05-26T01:27:13.622Z,11.00
2019-05-26T01:32:17.564Z,11.00
2019-05-26T01:37:19.403Z,11.00
2019-05-26T01:42:21.302Z,11.00
2019-05-26T01:47:24.521Z,11.00
2019-05-26T01:52:28.066Z,11.00
2019-05-26T01:57:30.116Z,10.90
2019-05-26T02:02:31.514Z,10.90
2019-05-26T02:07:32.912Z,10.90
2019-05-26T02:12:34.794Z,10.90
2019-05-26T02:17:39.325Z,10.90
2019-05-26T02:22:40.620Z,10.90
2019-05-26T02:27:43.673Z,10.90
2019-05-26T02:32:46.064Z,10.90
2019-05-26T02:37:47.367Z,10.90
2019-05-26T02:42:50.974Z,10.90
2019-05-26T02:47:52.411Z,10.90
2019-05-26T02:52:53.764Z,10.90
2019-05-26T02:57:55.327Z,10.90
2019-05-26T03:03:02.181Z,11.00
2019-05-26T03:08:06.625Z,11.00
2019-05-26T03:13:14.655Z,11.00
2019-05-26T03:18:16.771Z,11.00
2019-05-26T03:23:18.206Z,11.10
2019-05-26T03:28:22.326Z,11.10
2019-05-26T03:33:25.863Z,11.10
2019-05-26T03:38:28.513Z,11.10
2019-05-26T03:43:30.283Z,11.10
2019-05-26T03:48:31.922Z,11.10
2019-05-26T03:53:34.244Z,11.10
2019-05-26T03:58:37.448Z,11.10
2019-05-26T04:03:43.145Z,11.20
2019-05-26T04:08:44.542Z,11.20
2019-05-26T04:13:45.841Z,11.20
2019-05-26T04:18:52.913Z,11.30
2019-05-26T04:23:54.195Z,11.30
2019-05-26T04:28:55.858Z,11.40
2019-05-26T04:33:57.204Z,11.50
2019-05-26T04:38:58.485Z,11.70
2019-05-26T04:43:59.757Z,11.80
2019-05-26T04:49:01.296Z,11.90
2019-05-26T04:54:02.978Z,12.00
2019-05-26T04:59:07.314Z,12.10
2019-05-26T05:04:08.634Z,12.10
2019-05-26T05:09:09.897Z,12.10
2019-05-26T05:14:11.320Z,12.10
2019-05-26T05:19:12.795Z,12.10
2019-05-26T05:24:15.730Z,12.20
2019-05-26T05:29:17.076Z,12.30
2019-05-26T05:34:18.463Z,12.50
2019-05-26T05:39:21.872Z,12.70
2019-05-26T05:44:26.989Z,12.90
2019-05-26T05:49:28.293Z,13.10
2019-05-26T05:54:30.318Z,13.30
2019-05-26T05:59:33.177Z,13.60
2019-05-26T06:04:40.616Z,13.70
2019-05-26T06:09:42.224Z,13.90
2019-05-26T06:14:43.626Z,14.10
2019-05-26T06:19:46.028Z,14.30
2019-05-26T06:24:47.374Z,14.50
2019-05-26T06:29:58.526Z,14.60
2019-05-26T06:34:52.170Z,14.80
2019-05-26T06:39:54.980Z,15.00
2019-05-26T06:44:57.570Z,15.10
2019-05-26T06:49:59.616Z,15.30
2019-05-26T06:55:01.084Z,15.50
2019-05-26T07:00:05.153Z,15.60
2019-05-26T07:05:08.647Z,15.80
2019-05-26T07:10:15.163Z,15.90
2019-05-26T07:15:16.983Z,16.10
2019-05-26T07:20:18.322Z,16.20
2019-05-26T07:25:19.653Z,16.30
2019-05-26T07:30:23.535Z,16.40
2019-05-26T07:35:26.654Z,16.50
2019-05-26T07:40:27.961Z,16.60
2019-05-26T07:45:48.191Z,16.70
2019-05-26T07:50:49.809Z,16.80
2019-05-26T07:55:51.058Z,17.00
2019-05-26T08:00:52.582Z,17.10
2019-05-26T08:05:53.913Z,17.10
2019-05-26T08:11:14.216Z,17.10
2019-05-26T08:16:15.863Z,17.30
2019-05-26T08:21:17.411Z,17.80
2019-05-26T08:26:18.843Z,18.50
2019-05-26T08:31:21.423Z,18.90
2019-05-26T08:36:22.895Z,19.10
2019-05-26T08:41:24.545Z,19.30
2019-05-26T08:46:25.876Z,19.40
2019-05-26T08:51:31.706Z,19.50
2019-05-26T08:56:33.598Z,19.50
2019-05-26T09:01:34.932Z,19.60
2019-05-26T09:06:36.196Z,19.70
2019-05-26T09:11:37.933Z,19.90
2019-05-26T09:16:45.358Z,20.10
2019-05-26T09:21:46.967Z,20.10
2019-05-26T09:26:48.302Z,20.20
2019-05-26T09:31:49.673Z,20.40
2019-05-26T09:36:50.961Z,20.40
2019-05-26T09:41:52.785Z,20.40
2019-05-26T09:46:54.392Z,20.40
2019-05-26T09:51:56.977Z,20.60
2019-05-26T09:56:58.787Z,20.70
2019-05-26T10:02:00.218Z,21.00
2019-05-26T10:07:01.574Z,21.10
2019-05-26T10:12:04.500Z,21.20
2019-05-26T10:17:06.027Z,21.40
2019-05-26T10:22:07.570Z,21.50
2019-05-26T10:27:09.098Z,21.60
2019-05-26T10:32:10.622Z,21.90
2019-05-26T10:37:12.049Z,22.00
2019-05-26T10:42:13.336Z,22.10
2019-05-26T10:47:14.868Z,22.10
2019-05-26T10:52:17.209Z,22.20
2019-05-26T10:57:18.522Z,22.30
2019-05-26T11:02:23.164Z,22.40
2019-05-26T11:07:26.987Z,22.60
2019-05-26T11:12:30.348Z,22.80
2019-05-26T11:17:31.798Z,22.80
2019-05-26T11:22:34.685Z,22.80
2019-05-26T11:27:38.593Z,22.70
2019-05-26T11:32:40.370Z,22.70
2019-05-26T11:37:41.815Z,22.70
2019-05-26T11:42:44.966Z,22.80
2019-05-26T11:47:48.959Z,22.80
2019-05-26T11:52:52.543Z,22.80
2019-05-26T11:57:53.851Z,22.70
2019-05-26T12:02:55.544Z,22.70
2019-05-26T12:07:57.640Z,22.90
2019-05-26T12:12:59.191Z,23.00
2019-05-26T12:18:03.756Z,23.10
2019-05-26T12:23:05.327Z,23.20
2019-05-26T12:28:06.985Z,23.40
2019-05-26T12:33:08.522Z,23.50
2019-05-26T12:38:10.419Z,23.50
2019-05-26T12:43:13.043Z,23.60
2019-05-26T12:48:14.354Z,23.60
2019-05-26T12:53:15.652Z,23.70
2019-05-26T12:58:18.922Z,23.80
2019-05-26T13:03:20.327Z,23.80
2019-05-26T13:08:22.144Z,23.80
2019-05-26T13:13:25.434Z,23.80
2019-05-26T13:18:26.855Z,23.90
2019-05-26T13:23:28.187Z,24.00
2019-05-26T13:28:31.113Z,23.90
2019-05-26T13:33:32.454Z,23.80
2019-05-26T13:38:34.405Z,23.70
2019-05-26T13:43:40.677Z,23.70
2019-05-26T13:48:42.006Z,23.70
2019-05-26T13:53:43.426Z,23.60
2019-05-26T13:58:44.754Z,23.70
2019-05-26T14:03:49.503Z,23.90
2019-05-26T14:08:52.748Z,23.90
2019-05-26T14:13:54.663Z,23.90
2019-05-26T14:18:58.397Z,23.90
2019-05-26T14:24:01.617Z,24.00
2019-05-26T14:29:03.421Z,24.10
2019-05-26T14:34:08.136Z,24.20
2019-05-26T14:39:10.076Z,24.20
2019-05-26T14:44:11.452Z,24.10
2019-05-26T14:49:13.720Z,24.00
2019-05-26T14:54:20.116Z,23.90
2019-05-26T14:59:21.595Z,24.00
2019-05-26T15:04:23.732Z,24.00
2019-05-26T15:09:25.659Z,23.90
2019-05-26T15:14:27.103Z,23.70
2019-05-26T15:19:28.778Z,23.60
2019-05-26T15:24:32.100Z,23.50
2019-05-26T15:29:35.447Z,23.40
2019-05-26T15:34:36.875Z,23.40
2019-05-26T15:39:38.652Z,23.30
2019-05-26T15:44:39.948Z,23.30
2019-05-26T15:49:41.253Z,23.30
2019-05-26T15:54:54.381Z,23.20
2019-05-26T15:59:57.241Z,23.10
2019-05-26T16:04:59.934Z,23.10
2019-05-26T16:10:01.390Z,23.10
2019-05-26T16:15:06.711Z,22.90
2019-05-26T16:20:11.457Z,22.80
2019-05-26T16:25:12.836Z,22.70
2019-05-26T16:30:15.171Z,22.70
2019-05-26T16:35:17.768Z,22.60
2019-05-26T16:40:19.161Z,22.50
2019-05-26T16:45:22.302Z,22.40
2019-05-26T16:50:24.096Z,22.30
2019-05-26T16:55:27.309Z,22.10
2019-05-26T17:00:30.673Z,21.90
2019-05-26T17:05:34.115Z,21.70
2019-05-26T17:10:35.418Z,21.50
2019-05-26T17:15:38.226Z,21.50
2019-05-26T17:20:39.503Z,21.40
2019-05-26T17:25:41.517Z,21.40
2019-05-26T17:30:44.210Z,21.30
2019-05-26T17:35:45.725Z,21.20
2019-05-26T17:40:48.998Z,21.00
2019-05-26T17:45:51.790Z,20.90
2019-05-26T17:50:53.125Z,20.60
2019-05-26T17:55:54.502Z,20.50
2019-05-26T18:00:56.067Z,20.40
2019-05-26T18:05:57.417Z,20.40
2019-05-26T18:10:58.671Z,20.40
2019-05-26T18:15:59.942Z,20.30
2019-05-26T18:21:01.335Z,20.20
2019-05-26T18:26:03.307Z,20.10
2019-05-26T18:31:04.815Z,19.90
2019-05-26T18:36:07.080Z,19.80
2019-05-26T18:41:08.803Z,19.70
2019-05-26T18:46:10.139Z,19.60
2019-05-26T18:51:11.544Z,19.50
2019-05-26T18:56:12.937Z,19.40
2019-05-26T19:01:14.288Z,19.30
2019-05-26T19:06:15.787Z,19.20
2019-05-26T19:11:17.497Z,19.20
2019-05-26T19:16:37.789Z,19.10
2019-05-26T19:21:39.368Z,19.00
2019-05-26T19:26:40.724Z,18.90
2019-05-26T19:31:42.115Z,18.80
2019-05-26T19:36:43.466Z,18.70
2019-05-26T19:41:44.756Z,18.60
2019-05-26T19:46:46.068Z,18.50
2019-05-26T19:51:47.462Z,18.40
2019-05-26T19:56:48.912Z,18.30
2019-05-26T20:01:50.192Z,18.30
2019-05-26T20:06:53.086Z,18.20
2019-05-26T20:11:55.678Z,18.10
2019-05-26T20:16:57.193Z,18.00
2019-05-26T20:21:58.629Z,17.90
2019-05-26T20:26:59.879Z,17.80
2019-05-26T20:32:01.728Z,17.80
2019-05-26T20:37:07.322Z,17.80
2019-05-26T20:42:08.660Z,17.70
2019-05-26T20:47:09.926Z,17.70
2019-05-26T20:52:11.408Z,17.60
2019-05-26T20:57:13.008Z,17.60
2019-05-26T21:02:14.776Z,17.50
2019-05-26T21:07:16.831Z,17.50
2019-05-26T21:12:20.135Z,17.50
2019-05-26T21:17:21.662Z,17.40
2019-05-26T21:22:23.024Z,17.40
2019-05-26T21:27:24.492Z,17.30
2019-05-26T21:32:25.928Z,17.20
2019-05-26T21:37:27.376Z,17.10
2019-05-26T21:42:30.298Z,16.90
2019-05-26T21:47:31.680Z,16.80
2019-05-26T21:52:32.950Z,16.50
2019-05-26T21:57:34.244Z,16.30
2019-05-26T22:02:35.796Z,16.10
2019-05-26T22:07:37.076Z,16.00
2019-05-26T22:12:38.855Z,15.90
2019-05-26T22:17:40.766Z,15.80
2019-05-26T22:27:39.209Z,15.70
2019-05-26T22:32:40.552Z,15.60
2019-05-26T22:37:41.869Z,15.50
2019-05-26T22:42:43.381Z,15.40
2019-05-26T22:47:45.019Z,15.30
2019-05-26T22:52:47.624Z,15.30
2019-05-26T22:57:48.874Z,15.30
2019-05-26T23:02:50.273Z,15.20
2019-05-26T23:07:53.822Z,15.20
2019-05-26T23:12:55.141Z,15.20
2019-05-26T23:17:56.609Z,15.20
2019-05-26T23:22:57.880Z,15.20
2019-05-26T23:27:59.158Z,15.20
2019-05-26T23:33:00.457Z,15.20
2019-05-26T23:38:01.725Z,15.20
2019-05-26T23:43:03.067Z,15.20
2019-05-26T23:48:04.411Z,15.20
2019-05-26T23:53:05.659Z,15.20
2019-05-26T23:58:06.959Z,15.20
